createdAt,value
2017-11-15T00:00:16.473Z,3.5
2017-11-15T00:01:17.081Z,3.5
2017-11-15T00:02:16.712Z,3.53
2017-11-15T00:03:16.969Z,3.4
2017-11-15T00:04:16.688Z,3.5
2017-11-15T00:05:16.946Z,3.48
2017-11-15T00:06:16.928Z,3.48
2017-11-15T00:07:16.670Z,3.53
2017-11-15T00:08:16.646Z,3.45
2017-11-15T00:09:16.900Z,3.5
2017-11-15T00:10:16.892Z,3.34
2017-11-15T00:11:16.883Z,3.33
2017-11-15T00:12:16.611Z,3.4
2017-11-15T00:13:16.593Z,3.16
2017-11-15T00:14:16.852Z,3.12
2017-11-15T00:15:16.843Z,3.18
2017-11-15T00:16:16.924Z,3.13
2017-11-15T00:17:16.962Z,3.16
2017-11-15T00:18:16.813Z,3.22
2017-11-15T00:19:16.795Z,3.21
2017-11-15T00:20:16.883Z,3.15
2017-11-15T00:21:16.777Z,3.06
2017-11-15T00:22:16.504Z,3.11
2017-11-15T00:23:16.753Z,3.03
2017-11-15T00:24:16.751Z,2.98
2017-11-15T00:25:16.733Z,3.01
2017-11-15T00:26:16.717Z,2.91
2017-11-15T00:27:16.712Z,2.87
2017-11-15T00:28:16.711Z,2.79
2017-11-15T00:29:16.696Z,2.8
2017-11-15T00:30:16.684Z,2.64
2017-11-15T00:31:16.679Z,2.65
2017-11-15T00:32:16.404Z,2.62
2017-11-15T00:33:16.388Z,2.68
2017-11-15T00:34:16.661Z,2.68
2017-11-15T00:35:16.363Z,2.79
2017-11-15T00:36:16.638Z,2.85
2017-11-15T00:37:16.350Z,3.01
2017-11-15T00:38:16.338Z,3.12
2017-11-15T00:39:16.430Z,3.13
2017-11-15T00:40:16.569Z,3.26
2017-11-15T00:41:16.667Z,3.29
2017-11-15T00:42:16.292Z,3.37
2017-11-15T00:43:16.546Z,3.33
2017-11-15T00:44:16.630Z,3.4
2017-11-15T00:45:16.262Z,3.31
2017-11-15T00:46:16.513Z,3.53
2017-11-15T00:47:16.514Z,3.59
2017-11-15T00:48:16.231Z,3.56
2017-11-15T00:49:16.732Z,3.59
2017-11-15T00:50:16.213Z,3.66
2017-11-15T00:51:15.941Z,3.58
2017-11-15T00:52:16.445Z,3.63
2017-11-15T00:53:16.178Z,3.56
2017-11-15T00:54:16.174Z,3.53
2017-11-15T00:55:16.412Z,3.61
2017-11-15T00:56:16.150Z,3.58
2017-11-15T00:57:16.407Z,3.66
2017-11-15T00:58:16.126Z,3.66
2017-11-15T00:59:16.376Z,3.74
2017-11-15T01:00:16.106Z,3.64
2017-11-15T01:01:16.373Z,3.71
2017-11-15T01:02:16.087Z,3.67
2017-11-15T01:03:16.330Z,3.66
2017-11-15T01:04:16.328Z,3.66
2017-11-15T01:05:16.071Z,3.64
2017-11-15T01:06:16.308Z,3.59
2017-11-15T01:07:16.131Z,3.61
2017-11-15T01:08:16.020Z,3.49
2017-11-15T01:09:16.031Z,3.46
2017-11-15T01:10:16.285Z,3.41
2017-11-15T01:11:15.730Z,3.21
2017-11-15T01:12:15.979Z,3.22
2017-11-15T01:13:16.226Z,3.21
2017-11-15T01:14:15.697Z,3.05
2017-11-15T01:15:16.219Z,3.08
2017-11-15T01:16:15.939Z,2.88
2017-11-15T01:17:15.929Z,2.9
2017-11-15T01:18:15.919Z,2.9
2017-11-15T01:19:16.167Z,2.76
2017-11-15T01:20:15.900Z,2.85
2017-11-15T01:21:16.145Z,2.91
2017-11-15T01:22:16.133Z,2.8
2017-11-15T01:23:16.330Z,2.8
2017-11-15T01:24:16.108Z,2.61
2017-11-15T01:25:15.847Z,2.64
2017-11-15T01:26:16.091Z,2.61
2017-11-15T01:27:15.565Z,2.54
2017-11-15T01:28:16.172Z,2.58
2017-11-15T01:29:16.063Z,2.41
2017-11-15T01:30:16.052Z,2.55
2017-11-15T01:31:16.148Z,2.41
2017-11-15T01:32:16.028Z,2.37
2017-11-15T01:33:16.015Z,2.4
2017-11-15T01:34:16.119Z,2.34
2017-11-15T01:35:15.748Z,2.39
2017-11-15T01:36:15.987Z,2.4
2017-11-15T01:37:15.979Z,2.52
2017-11-15T01:38:15.707Z,2.57
2017-11-15T01:39:15.697Z,2.5
2017-11-15T01:40:15.538Z,2.55
2017-11-15T01:41:15.680Z,2.55
2017-11-15T01:42:15.930Z,2.61
2017-11-15T01:43:15.918Z,2.72
2017-11-15T01:44:15.490Z,2.59
2017-11-15T01:45:15.894Z,2.8
2017-11-15T01:46:15.641Z,2.8
2017-11-15T01:47:15.612Z,2.91
2017-11-15T01:48:15.610Z,2.93
2017-11-15T01:49:15.592Z,2.97
2017-11-15T01:50:15.684Z,3.05
2017-11-15T01:51:15.311Z,2.9
2017-11-15T01:52:15.821Z,2.88
2017-11-15T01:53:15.817Z,3.05
2017-11-15T01:54:15.808Z,3.05
2017-11-15T01:55:15.790Z,3.01
2017-11-15T01:56:15.786Z,3.11
2017-11-15T01:57:15.868Z,2.85
2017-11-15T01:58:15.498Z,2.79
2017-11-15T01:59:15.487Z,2.68
2017-11-15T02:00:15.736Z,2.52
2017-11-15T02:01:15.734Z,2.52
2017-11-15T02:02:15.553Z,2.58
2017-11-15T02:03:15.708Z,2.36
2017-11-15T02:04:15.696Z,2.32
2017-11-15T02:05:15.684Z,2.32
2017-11-15T02:06:15.697Z,2.22
2017-11-15T02:07:15.671Z,2.3
2017-11-15T02:08:15.753Z,2.33
2017-11-15T02:09:15.647Z,2.32
2017-11-15T02:10:15.111Z,2.39
2017-11-15T02:11:15.620Z,2.41
2017-11-15T02:12:15.352Z,2.43
2017-11-15T02:13:15.601Z,2.54
2017-11-15T02:14:15.594Z,2.44
2017-11-15T02:15:15.318Z,2.43
2017-11-15T02:16:15.664Z,2.55
2017-11-15T02:17:15.294Z,2.57
2017-11-15T02:18:15.283Z,2.55
2017-11-15T02:19:15.277Z,2.58
2017-11-15T02:20:15.528Z,2.61
2017-11-15T02:21:15.514Z,2.58
2017-11-15T02:22:15.503Z,2.64
2017-11-15T02:23:15.594Z,2.52
2017-11-15T02:24:15.223Z,2.62
2017-11-15T02:25:15.471Z,2.58
2017-11-15T02:26:15.470Z,2.58
2017-11-15T02:27:15.556Z,2.58
2017-11-15T02:28:15.450Z,2.47
2017-11-15T02:29:15.438Z,2.55
2017-11-15T02:30:15.421Z,2.5
2017-11-15T02:31:15.432Z,2.5
2017-11-15T02:32:15.396Z,2.52
2017-11-15T02:33:15.397Z,2.46
2017-11-15T02:34:14.862Z,2.36
2017-11-15T02:35:15.372Z,2.25
2017-11-15T02:36:15.097Z,2.32
2017-11-15T02:37:15.383Z,2.33
2017-11-15T02:38:15.339Z,2.25
2017-11-15T02:39:15.069Z,2.18
2017-11-15T02:40:15.055Z,2.16
2017-11-15T02:41:15.044Z,2.14
2017-11-15T02:42:15.038Z,2.04
2017-11-15T02:43:15.444Z,2.01
2017-11-15T02:44:15.384Z,2
2017-11-15T02:45:15.005Z,2.05
2017-11-15T02:46:14.991Z,2.07
2017-11-15T02:47:15.240Z,1.97
2017-11-15T02:48:14.983Z,2.08
2017-11-15T02:49:15.366Z,2.03
2017-11-15T02:50:15.209Z,2.05
2017-11-15T02:51:15.196Z,1.97
2017-11-15T02:52:15.189Z,1.78
2017-11-15T02:53:14.918Z,1.74
2017-11-15T02:54:15.165Z,1.81
2017-11-15T02:55:14.904Z,1.79
2017-11-15T02:56:15.147Z,1.82
2017-11-15T02:57:14.980Z,1.84
2017-11-15T02:58:15.223Z,1.97
2017-11-15T02:59:15.216Z,1.97
2017-11-15T03:00:14.845Z,1.92
2017-11-15T03:01:14.831Z,1.95
2017-11-15T03:02:15.079Z,1.89
2017-11-15T03:03:14.814Z,1.85
2017-11-15T03:04:14.795Z,1.79
2017-11-15T03:05:15.051Z,1.75
2017-11-15T03:06:15.038Z,1.71
2017-11-15T03:07:14.767Z,1.79
2017-11-15T03:08:14.757Z,1.82
2017-11-15T03:09:14.751Z,1.81
2017-11-15T03:10:14.840Z,1.86
2017-11-15T03:11:14.986Z,1.89
2017-11-15T03:12:15.083Z,1.82
2017-11-15T03:13:14.962Z,1.79
2017-11-15T03:14:14.955Z,1.82
2017-11-15T03:15:14.683Z,1.89
2017-11-15T03:16:14.683Z,1.92
2017-11-15T03:17:14.673Z,1.86
2017-11-15T03:18:14.651Z,1.93
2017-11-15T03:19:14.909Z,1.98
2017-11-15T03:20:14.892Z,2.03
2017-11-15T03:21:14.883Z,2.1
2017-11-15T03:22:14.898Z,2.1
2017-11-15T03:23:14.855Z,2.23
2017-11-15T03:24:14.856Z,2.22
2017-11-15T03:25:14.836Z,2.34
2017-11-15T03:26:14.825Z,2.28
2017-11-15T03:27:14.814Z,2.19
2017-11-15T03:28:14.542Z,2.19
2017-11-15T03:29:14.538Z,2.16
2017-11-15T03:30:14.813Z,2.05
2017-11-15T03:31:14.791Z,1.98
2017-11-15T03:32:14.502Z,1.93
2017-11-15T03:33:14.487Z,1.86
2017-11-15T03:34:14.628Z,1.86
2017-11-15T03:35:14.568Z,1.84
2017-11-15T03:36:14.720Z,1.82
2017-11-15T03:37:14.726Z,1.86
2017-11-15T03:38:14.728Z,1.85
2017-11-15T03:39:14.689Z,1.78
2017-11-15T03:40:14.154Z,1.82
2017-11-15T03:41:14.402Z,1.85
2017-11-15T03:42:14.656Z,1.82
2017-11-15T03:43:14.643Z,1.86
2017-11-15T03:44:14.640Z,1.88
2017-11-15T03:45:14.661Z,1.89
2017-11-15T03:46:14.708Z,1.92
2017-11-15T03:47:14.343Z,1.95
2017-11-15T03:48:14.589Z,1.89
2017-11-15T03:49:14.572Z,1.85
2017-11-15T03:50:14.568Z,1.76
2017-11-15T03:51:14.306Z,1.79
2017-11-15T03:52:14.298Z,1.78
2017-11-15T03:53:14.540Z,1.88
2017-11-15T03:54:14.304Z,1.89
2017-11-15T03:55:14.255Z,1.89
2017-11-15T03:56:14.504Z,1.86
2017-11-15T03:57:14.593Z,2
2017-11-15T03:58:14.225Z,1.89
2017-11-15T03:59:14.517Z,1.88
2017-11-15T04:00:14.233Z,1.92
2017-11-15T04:01:14.457Z,1.95
2017-11-15T04:02:14.177Z,2.01
2017-11-15T04:03:14.430Z,2.04
2017-11-15T04:04:14.416Z,1.97
2017-11-15T04:05:14.404Z,1.89
2017-11-15T04:06:14.394Z,1.86
2017-11-15T04:07:14.126Z,1.97
2017-11-15T04:08:14.373Z,2.08
2017-11-15T04:09:14.365Z,2
2017-11-15T04:10:14.358Z,2.01
2017-11-15T04:11:13.822Z,2
2017-11-15T04:12:14.074Z,2.04
2017-11-15T04:13:14.076Z,2.04
2017-11-15T04:14:14.257Z,2.04
2017-11-15T04:15:14.037Z,2.08
2017-11-15T04:16:14.133Z,2.07
2017-11-15T04:17:14.283Z,2.12
2017-11-15T04:18:14.269Z,2.04
2017-11-15T04:19:13.995Z,2.01
2017-11-15T04:20:14.249Z,2.05
2017-11-15T04:21:13.974Z,2.07
2017-11-15T04:22:13.964Z,1.98
2017-11-15T04:23:14.326Z,1.93
2017-11-15T04:24:14.094Z,1.95
2017-11-15T04:25:14.294Z,1.97
2017-11-15T04:26:14.182Z,1.92
2017-11-15T04:27:13.923Z,1.97
2017-11-15T04:28:13.900Z,2.01
2017-11-15T04:29:14.165Z,2.04
2017-11-15T04:30:13.877Z,2.01
2017-11-15T04:31:14.124Z,2.1
2017-11-15T04:32:14.119Z,2.05
2017-11-15T04:33:14.113Z,2.01
2017-11-15T04:34:14.200Z,2.1
2017-11-15T04:35:14.084Z,2.07
2017-11-15T04:36:14.075Z,2
2017-11-15T04:37:13.801Z,2.01
2017-11-15T04:38:14.061Z,1.88
2017-11-15T04:39:13.786Z,1.86
2017-11-15T04:40:13.779Z,1.75
2017-11-15T04:41:13.762Z,1.71
2017-11-15T04:42:14.005Z,1.68
2017-11-15T04:43:14.002Z,1.68
2017-11-15T04:44:13.500Z,1.76
2017-11-15T04:45:13.983Z,1.67
2017-11-15T04:46:13.806Z,1.75
2017-11-15T04:47:13.964Z,1.79
2017-11-15T04:48:14.047Z,1.82
2017-11-15T04:49:13.938Z,1.79
2017-11-15T04:50:13.665Z,1.84
2017-11-15T04:51:13.649Z,1.82
2017-11-15T04:52:13.902Z,1.86
2017-11-15T04:53:13.631Z,1.86
2017-11-15T04:54:13.629Z,1.82
2017-11-15T04:55:13.609Z,1.93
2017-11-15T04:56:13.859Z,1.88
2017-11-15T04:57:13.586Z,1.82
2017-11-15T04:58:13.578Z,1.71
2017-11-15T04:59:13.565Z,1.61
2017-11-15T05:00:13.817Z,1.67
2017-11-15T05:01:13.544Z,1.75
2017-11-15T05:02:13.910Z,1.75
2017-11-15T05:03:13.268Z,1.76
2017-11-15T05:04:13.873Z,1.78
2017-11-15T05:05:13.507Z,1.86
2017-11-15T05:06:13.758Z,1.81
2017-11-15T05:07:13.484Z,1.86
2017-11-15T05:08:13.732Z,1.88
2017-11-15T05:09:13.718Z,1.82
2017-11-15T05:10:13.289Z,1.7
2017-11-15T05:11:13.703Z,1.66
2017-11-15T05:12:13.685Z,1.71
2017-11-15T05:13:13.674Z,1.53
2017-11-15T05:14:13.661Z,1.64
2017-11-15T05:15:13.136Z,1.64
2017-11-15T05:16:13.743Z,1.67
2017-11-15T05:17:13.631Z,1.75
2017-11-15T05:18:13.364Z,1.75
2017-11-15T05:19:13.615Z,1.79
2017-11-15T05:20:13.612Z,1.85
2017-11-15T05:21:13.354Z,1.88
2017-11-15T05:22:13.582Z,1.86
2017-11-15T05:23:13.774Z,1.89
2017-11-15T05:24:13.040Z,1.97
2017-11-15T05:25:13.548Z,1.97
2017-11-15T05:26:13.275Z,1.89
2017-11-15T05:27:13.544Z,1.93
2017-11-15T05:28:13.611Z,1.89
2017-11-15T05:29:13.265Z,1.89
2017-11-15T05:30:13.490Z,2.05
2017-11-15T05:31:13.489Z,2
2017-11-15T05:32:13.588Z,2.15
2017-11-15T05:33:13.470Z,2.18
2017-11-15T05:34:13.186Z,2.22
2017-11-15T05:35:13.182Z,2.22
2017-11-15T05:36:13.424Z,2.28
2017-11-15T05:37:13.160Z,2.37
2017-11-15T05:38:13.412Z,2.32
2017-11-15T05:39:13.147Z,2.34
2017-11-15T05:40:13.286Z,2.39
2017-11-15T05:41:13.370Z,2.41
2017-11-15T05:42:13.105Z,2.4
2017-11-15T05:43:13.361Z,2.4
2017-11-15T05:44:13.366Z,2.39
2017-11-15T05:45:13.335Z,2.47
2017-11-15T05:46:13.346Z,2.47
2017-11-15T05:47:13.311Z,2.41
2017-11-15T05:48:13.399Z,2.36
2017-11-15T05:49:13.290Z,2.43
2017-11-15T05:50:13.281Z,2.41
2017-11-15T05:51:13.011Z,2.39
2017-11-15T05:52:13.003Z,2.41
2017-11-15T05:53:13.084Z,2.41
2017-11-15T05:54:12.977Z,2.54
2017-11-15T05:55:13.233Z,2.46
2017-11-15T05:56:13.215Z,2.47
2017-11-15T05:57:13.302Z,2.5
2017-11-15T05:58:12.937Z,2.59
2017-11-15T05:59:13.180Z,2.65
2017-11-15T06:00:13.301Z,2.51
2017-11-15T06:01:12.900Z,2.51
2017-11-15T06:02:13.153Z,2.55
2017-11-15T06:03:13.140Z,2.62
2017-11-15T06:04:12.864Z,2.69
2017-11-15T06:05:13.215Z,2.62
2017-11-15T06:06:12.599Z,2.59
2017-11-15T06:07:12.836Z,2.64
2017-11-15T06:08:13.090Z,2.73
2017-11-15T06:09:13.089Z,2.69
2017-11-15T06:10:13.022Z,2.58
2017-11-15T06:11:13.114Z,2.55
2017-11-15T06:12:12.625Z,2.58
2017-11-15T06:13:13.302Z,2.77
2017-11-15T06:14:13.154Z,2.79
2017-11-15T06:15:13.142Z,2.65
2017-11-15T06:16:12.889Z,2.77
2017-11-15T06:17:12.923Z,2.69
2017-11-15T06:18:12.897Z,2.62
2017-11-15T06:19:13.099Z,2.54
2017-11-15T06:20:13.130Z,2.65
2017-11-15T06:21:12.841Z,2.61
2017-11-15T06:22:13.266Z,2.62
2017-11-15T06:23:13.028Z,2.52
2017-11-15T06:24:13.237Z,2.62
2017-11-15T06:25:12.813Z,2.59
2017-11-15T06:26:13.222Z,2.52
2017-11-15T06:27:12.454Z,2.55
2017-11-15T06:28:13.107Z,2.68
2017-11-15T06:29:13.122Z,2.58
2017-11-15T06:30:12.927Z,2.69
2017-11-15T06:31:12.605Z,2.58
2017-11-15T06:32:13.215Z,2.65
2017-11-15T06:33:13.060Z,2.69
2017-11-15T06:34:12.939Z,2.76
2017-11-15T06:35:12.757Z,2.77
2017-11-15T06:36:12.999Z,2.85
2017-11-15T06:37:12.581Z,2.87
2017-11-15T06:38:12.499Z,3
2017-11-15T06:39:12.753Z,3
2017-11-15T06:40:12.221Z,3.06
2017-11-15T06:41:12.741Z,3.06
2017-11-15T06:42:12.558Z,2.98
2017-11-15T06:43:12.707Z,3
2017-11-15T06:44:12.445Z,3.06
2017-11-15T06:45:12.787Z,2.98
2017-11-15T06:46:12.416Z,3.11
2017-11-15T06:47:12.411Z,3.21
2017-11-15T06:48:12.493Z,3.12
2017-11-15T06:49:12.646Z,3.19
2017-11-15T06:50:12.371Z,3.27
2017-11-15T06:51:12.617Z,3.26
2017-11-15T06:52:12.350Z,3.26
2017-11-15T06:53:12.602Z,3.31
2017-11-15T06:54:12.609Z,3.31
2017-11-15T06:55:12.320Z,3.33
2017-11-15T06:56:12.566Z,3.41
2017-11-15T06:57:12.566Z,3.52
2017-11-15T06:58:12.285Z,3.36
2017-11-15T06:59:12.018Z,3.19
2017-11-15T07:00:12.267Z,3.29
2017-11-15T07:01:12.511Z,3.27
2017-11-15T07:02:12.507Z,3.21
2017-11-15T07:03:12.236Z,3.18
2017-11-15T07:04:12.490Z,3.13
2017-11-15T07:05:12.486Z,3.06
2017-11-15T07:06:12.198Z,3.13
2017-11-15T07:07:12.189Z,3.24
2017-11-15T07:08:12.277Z,3.22
2017-11-15T07:09:12.165Z,3.21
2017-11-15T07:10:12.433Z,3.13
2017-11-15T07:11:12.413Z,3.16
2017-11-15T07:12:12.414Z,3.12
2017-11-15T07:13:12.398Z,3.12
2017-11-15T07:14:12.393Z,3.08
2017-11-15T07:15:12.207Z,2.98
2017-11-15T07:16:11.832Z,3.03
2017-11-15T07:17:12.441Z,3.06
2017-11-15T07:18:12.330Z,2.98
2017-11-15T07:19:12.060Z,2.94
2017-11-15T07:20:12.048Z,3
2017-11-15T07:21:12.409Z,3
2017-11-15T07:22:11.769Z,3.11
2017-11-15T07:23:12.278Z,3.15
2017-11-15T07:24:12.106Z,3.09
2017-11-15T07:25:12.260Z,3.21
2017-11-15T07:26:12.253Z,3.13
2017-11-15T07:27:11.976Z,3.26
2017-11-15T07:28:12.066Z,3.16
2017-11-15T07:29:11.953Z,3.29
2017-11-15T07:30:12.224Z,3.24
2017-11-15T07:31:12.207Z,3.4
2017-11-15T07:32:11.668Z,3.36
2017-11-15T07:33:12.173Z,3.18
2017-11-15T07:34:12.156Z,3.29
2017-11-15T07:35:12.352Z,3.24
2017-11-15T07:36:12.137Z,3.15
2017-11-15T07:37:12.128Z,3.11
2017-11-15T07:38:12.114Z,3.03
2017-11-15T07:39:11.851Z,3.01
2017-11-15T07:40:12.098Z,3.06
2017-11-15T07:41:11.566Z,3.06
2017-11-15T07:42:11.813Z,3.21
2017-11-15T07:43:11.811Z,3.27
2017-11-15T07:44:12.070Z,3.29
2017-11-15T07:45:12.039Z,3.34
2017-11-15T07:46:11.870Z,3.41
2017-11-15T07:47:12.015Z,3.37
2017-11-15T07:48:11.591Z,3.37
2017-11-15T07:49:12.014Z,3.56
2017-11-15T07:50:11.726Z,3.52
2017-11-15T07:51:11.975Z,3.58
2017-11-15T07:52:11.964Z,3.58
2017-11-15T07:53:11.952Z,3.63
2017-11-15T07:54:11.950Z,3.55
2017-11-15T07:55:11.675Z,3.56
2017-11-15T07:56:11.932Z,3.5
2017-11-15T07:57:12.013Z,3.36
2017-11-15T07:58:11.383Z,3.41
2017-11-15T07:59:11.630Z,3.43
2017-11-15T08:00:11.629Z,3.46
2017-11-15T08:01:11.868Z,3.55
2017-11-15T08:02:11.882Z,3.4
2017-11-15T08:03:11.591Z,3.43
2017-11-15T08:04:11.839Z,3.41
2017-11-15T08:05:11.854Z,3.37
2017-11-15T08:06:11.817Z,3.3
2017-11-15T08:07:11.545Z,3.29
2017-11-15T08:08:11.806Z,3.37
2017-11-15T08:09:11.531Z,3.4
2017-11-15T08:10:11.776Z,3.5
2017-11-15T08:11:11.865Z,3.48
2017-11-15T08:12:11.497Z,3.55
2017-11-15T08:13:11.482Z,3.55
2017-11-15T08:14:11.726Z,3.48
2017-11-15T08:15:11.730Z,3.5
2017-11-15T08:16:11.717Z,3.49
2017-11-15T08:17:11.446Z,3.49
2017-11-15T08:18:11.702Z,3.49
2017-11-15T08:19:11.159Z,3.49
2017-11-15T08:20:11.410Z,3.48
2017-11-15T08:21:11.658Z,3.53
2017-11-15T08:22:11.383Z,3.58
2017-11-15T08:23:11.659Z,3.7
2017-11-15T08:24:11.368Z,3.73
2017-11-15T08:25:11.352Z,3.88
2017-11-15T08:26:11.378Z,3.86
2017-11-15T08:27:11.340Z,3.77
2017-11-15T08:28:11.591Z,3.77
2017-11-15T08:29:11.666Z,3.73
2017-11-15T08:30:11.301Z,3.67
2017-11-15T08:31:11.289Z,3.67
2017-11-15T08:32:11.282Z,3.77
2017-11-15T08:33:11.524Z,3.86
2017-11-15T08:34:11.515Z,3.96
2017-11-15T08:35:11.086Z,3.91
2017-11-15T08:36:11.498Z,3.95
2017-11-15T08:37:11.482Z,4.02
2017-11-15T08:38:11.482Z,3.92
2017-11-15T08:39:11.463Z,3.84
2017-11-15T08:40:11.210Z,3.77
2017-11-15T08:41:11.437Z,3.76
2017-11-15T08:42:11.441Z,3.76
2017-11-15T08:43:11.163Z,4
2017-11-15T08:44:11.148Z,3.94
2017-11-15T08:45:11.408Z,4.12
2017-11-15T08:46:11.401Z,4.06
2017-11-15T08:47:11.115Z,4.22
2017-11-15T08:48:11.103Z,4.22
2017-11-15T08:49:11.093Z,4.18
2017-11-15T08:50:11.083Z,4.21
2017-11-15T08:51:11.453Z,4.24
2017-11-15T08:52:11.335Z,4.34
2017-11-15T08:53:11.051Z,4.38
2017-11-15T08:54:11.304Z,4.32
2017-11-15T08:55:11.031Z,4.38
2017-11-15T08:56:10.765Z,4.34
2017-11-15T08:57:11.107Z,4.48
2017-11-15T08:58:11.254Z,4.48
2017-11-15T08:59:11.351Z,4.52
2017-11-15T09:00:11.235Z,4.48
2017-11-15T09:01:11.328Z,4.6
2017-11-15T09:02:10.960Z,4.68
2017-11-15T09:03:11.206Z,4.74
2017-11-15T09:04:11.196Z,4.67
2017-11-15T09:05:10.930Z,4.74
2017-11-15T09:06:10.916Z,4.67
2017-11-15T09:07:10.903Z,4.7
2017-11-15T09:08:11.259Z,4.66
2017-11-15T09:09:10.883Z,4.74
2017-11-15T09:10:11.128Z,4.76
2017-11-15T09:11:10.862Z,4.75
2017-11-15T09:12:11.118Z,4.66
2017-11-15T09:13:11.117Z,4.64
2017-11-15T09:14:10.826Z,4.68
2017-11-15T09:15:10.822Z,4.67
2017-11-15T09:16:10.809Z,4.68
2017-11-15T09:17:10.805Z,4.71
2017-11-15T09:18:11.053Z,4.71
2017-11-15T09:19:10.776Z,4.68
2017-11-15T09:20:10.768Z,4.7
2017-11-15T09:21:10.773Z,4.74
2017-11-15T09:22:11.006Z,4.75
2017-11-15T09:23:10.737Z,4.75
2017-11-15T09:24:10.728Z,4.84
2017-11-15T09:25:10.713Z,4.83
2017-11-15T09:26:10.966Z,4.89
2017-11-15T09:27:10.956Z,4.89
2017-11-15T09:28:10.944Z,4.94
2017-11-15T09:29:10.934Z,5
2017-11-15T09:30:10.504Z,5.02
2017-11-15T09:31:10.916Z,5.01
2017-11-15T09:32:10.653Z,5.01
2017-11-15T09:33:10.894Z,5.02
2017-11-15T09:34:10.880Z,5
2017-11-15T09:35:10.870Z,4.94
2017-11-15T09:36:10.860Z,4.94
2017-11-15T09:37:10.846Z,4.94
2017-11-15T09:38:10.845Z,4.87
2017-11-15T09:39:10.825Z,4.66
2017-11-15T09:40:10.559Z,4.57
2017-11-15T09:41:10.548Z,4.49
2017-11-15T09:42:10.797Z,4.49
2017-11-15T09:43:10.789Z,4.56
2017-11-15T09:44:10.267Z,4.61
2017-11-15T09:45:10.655Z,4.57
2017-11-15T09:46:10.755Z,4.46
2017-11-15T09:47:10.744Z,4.48
2017-11-15T09:48:10.216Z,4.64
2017-11-15T09:49:10.721Z,4.74
2017-11-15T09:50:10.193Z,4.83
2017-11-15T09:51:10.442Z,4.97
2017-11-15T09:52:10.705Z,5.08
2017-11-15T09:53:10.419Z,5.04
2017-11-15T09:54:10.680Z,4.89
2017-11-15T09:55:10.413Z,5.01
2017-11-15T09:56:10.392Z,5.05
2017-11-15T09:57:10.653Z,4.98
2017-11-15T09:58:10.631Z,5.02
2017-11-15T09:59:10.616Z,4.98
2017-11-15T10:00:10.612Z,4.79
2017-11-15T10:01:10.371Z,4.75
2017-11-15T10:02:10.328Z,4.82
2017-11-15T10:03:10.591Z,4.9
2017-11-15T10:04:10.566Z,5
2017-11-15T10:05:10.572Z,5.08
2017-11-15T10:06:10.028Z,5.28
2017-11-15T10:07:10.276Z,5.43
2017-11-15T10:08:10.525Z,5.4
2017-11-15T10:09:10.253Z,5.38
2017-11-15T10:10:10.510Z,5.4
2017-11-15T10:11:10.499Z,5.41
2017-11-15T10:12:10.222Z,5.36
2017-11-15T10:13:10.497Z,5.23
2017-11-15T10:14:10.304Z,5.19
2017-11-15T10:15:10.451Z,5.08
2017-11-15T10:16:10.185Z,5.04
2017-11-15T10:17:10.753Z,5.01
2017-11-15T10:18:10.165Z,4.9
2017-11-15T10:19:10.414Z,5.01
2017-11-15T10:20:10.401Z,5.1
2017-11-15T10:21:10.387Z,5.15
2017-11-15T10:22:10.126Z,5.18
2017-11-15T10:23:10.465Z,5.28
2017-11-15T10:24:10.361Z,5.28
2017-11-15T10:25:10.364Z,5.34
2017-11-15T10:26:10.341Z,5.47
2017-11-15T10:27:10.326Z,5.36
2017-11-15T10:28:10.063Z,5.43
2017-11-15T10:29:10.301Z,5.56
2017-11-15T10:30:09.777Z,5.49
2017-11-15T10:31:10.024Z,5.49
2017-11-15T10:32:10.272Z,5.58
2017-11-15T10:33:10.270Z,5.7
2017-11-15T10:34:09.990Z,5.59
2017-11-15T10:35:10.359Z,5.59
2017-11-15T10:36:10.238Z,5.59
2017-11-15T10:37:10.232Z,5.65
2017-11-15T10:38:09.948Z,5.67
2017-11-15T10:39:09.683Z,5.65
2017-11-15T10:40:10.324Z,5.59
2017-11-15T10:41:10.018Z,5.64
2017-11-15T10:42:10.266Z,5.65
2017-11-15T10:43:10.160Z,5.79
2017-11-15T10:44:09.629Z,5.74
2017-11-15T10:45:09.897Z,5.79
2017-11-15T10:46:09.872Z,5.77
2017-11-15T10:47:10.119Z,5.8
2017-11-15T10:48:09.847Z,5.83
2017-11-15T10:49:09.837Z,5.87
2017-11-15T10:50:10.085Z,5.8
2017-11-15T10:51:09.826Z,5.92
2017-11-15T10:52:09.805Z,5.92
2017-11-15T10:53:10.053Z,5.98
2017-11-15T10:54:10.045Z,6.02
2017-11-15T10:55:09.772Z,5.92
2017-11-15T10:56:10.023Z,6.06
2017-11-15T10:57:09.756Z,5.95
2017-11-15T10:58:10.003Z,5.97
2017-11-15T10:59:09.741Z,5.98
2017-11-15T11:00:09.722Z,5.83
2017-11-15T11:01:10.070Z,5.91
2017-11-15T11:02:09.700Z,5.98
2017-11-15T11:03:09.692Z,5.9
2017-11-15T11:04:10.040Z,5.81
2017-11-15T11:05:09.934Z,5.83
2017-11-15T11:06:10.024Z,5.76
2017-11-15T11:07:09.677Z,5.74
2017-11-15T11:08:09.644Z,5.79
2017-11-15T11:09:09.894Z,5.77
2017-11-15T11:10:09.891Z,5.72
2017-11-15T11:11:09.864Z,5.7
2017-11-15T11:12:09.345Z,5.62
2017-11-15T11:13:09.590Z,5.56
2017-11-15T11:14:09.835Z,5.37
2017-11-15T11:15:09.825Z,5.38
2017-11-15T11:16:09.816Z,5.33
2017-11-15T11:17:09.542Z,5.38
2017-11-15T11:18:09.535Z,5.41
2017-11-15T11:19:09.791Z,5.49
2017-11-15T11:20:09.520Z,5.55
2017-11-15T11:21:09.505Z,5.59
2017-11-15T11:22:09.758Z,5.69
2017-11-15T11:23:09.753Z,5.76
2017-11-15T11:24:09.478Z,5.76
2017-11-15T11:25:09.720Z,5.81
2017-11-15T11:26:09.733Z,5.8
2017-11-15T11:27:09.184Z,5.87
2017-11-15T11:28:09.531Z,5.83
2017-11-15T11:29:09.160Z,5.74
2017-11-15T11:30:09.412Z,5.74
2017-11-15T11:31:09.403Z,5.65
2017-11-15T11:32:09.660Z,5.74
2017-11-15T11:33:09.643Z,5.8
2017-11-15T11:34:09.479Z,5.9
2017-11-15T11:35:09.623Z,5.95
2017-11-15T11:36:09.710Z,5.98
2017-11-15T11:37:09.600Z,5.94
2017-11-15T11:38:09.332Z,6.1
2017-11-15T11:39:09.585Z,6.15
2017-11-15T11:40:09.305Z,6.12
2017-11-15T11:41:09.297Z,6.12
2017-11-15T11:42:09.389Z,6.05
2017-11-15T11:43:09.540Z,6.01
2017-11-15T11:44:09.522Z,6.1
2017-11-15T11:45:09.258Z,6.12
2017-11-15T11:46:09.505Z,6.05
2017-11-15T11:47:09.672Z,6.07
2017-11-15T11:48:09.490Z,6.02
2017-11-15T11:49:09.472Z,6.06
2017-11-15T11:50:09.462Z,6.17
2017-11-15T11:51:09.453Z,6.28
2017-11-15T11:52:09.543Z,6.22
2017-11-15T11:53:09.531Z,6.31
2017-11-15T11:54:09.164Z,6.29
2017-11-15T11:55:09.155Z,6.26
2017-11-15T11:56:09.403Z,6.16
2017-11-15T11:57:09.390Z,6.06
2017-11-15T11:58:09.222Z,6.15
2017-11-15T11:59:09.372Z,6.12
2017-11-15T12:00:09.106Z,6.16
2017-11-15T12:01:09.354Z,6.19
2017-11-15T12:02:09.096Z,6.1
2017-11-15T12:03:09.334Z,6.16
2017-11-15T12:04:09.059Z,6.22
2017-11-15T12:05:09.415Z,6.29
2017-11-15T12:06:09.037Z,6.32
2017-11-15T12:07:09.286Z,6.46
2017-11-15T12:08:09.375Z,6.5
2017-11-15T12:09:09.268Z,6.39
2017-11-15T12:10:09.001Z,6.31
2017-11-15T12:11:09.091Z,6.29
2017-11-15T12:12:08.980Z,6.19
2017-11-15T12:13:09.223Z,6.26
2017-11-15T12:14:09.362Z,6.28
2017-11-15T12:15:08.953Z,6.15
2017-11-15T12:16:09.201Z,6.25
2017-11-15T12:17:08.926Z,6.36
2017-11-15T12:18:09.181Z,6.38
2017-11-15T12:19:08.905Z,6.39
2017-11-15T12:20:08.897Z,6.53
2017-11-15T12:21:09.143Z,6.54
2017-11-15T12:22:09.148Z,6.54
2017-11-15T12:23:09.127Z,6.49
2017-11-15T12:24:08.855Z,6.59
2017-11-15T12:25:09.110Z,6.7
2017-11-15T12:26:09.095Z,6.7
2017-11-15T12:27:08.833Z,6.6
2017-11-15T12:28:09.176Z,6.62
2017-11-15T12:29:08.804Z,6.49
2017-11-15T12:30:09.055Z,6.43
2017-11-15T12:31:08.780Z,6.54
2017-11-15T12:32:09.035Z,6.52
2017-11-15T12:33:09.019Z,6.46
2017-11-15T12:34:08.751Z,6.49
2017-11-15T12:35:09.001Z,6.62
2017-11-15T12:36:08.835Z,6.64
2017-11-15T12:37:08.821Z,6.64
2017-11-15T12:38:08.710Z,6.64
2017-11-15T12:39:08.704Z,6.67
2017-11-15T12:40:08.693Z,6.77
2017-11-15T12:41:08.681Z,6.9
2017-11-15T12:42:08.671Z,6.95
2017-11-15T12:43:08.659Z,7.05
2017-11-15T12:44:08.909Z,7.1
2017-11-15T12:45:08.645Z,6.92
2017-11-15T12:46:08.888Z,6.87
2017-11-15T12:47:08.614Z,6.89
2017-11-15T12:48:08.621Z,6.87
2017-11-15T12:49:08.856Z,6.87
2017-11-15T12:50:08.851Z,6.92
2017-11-15T12:51:08.609Z,7
2017-11-15T12:52:08.824Z,6.97
2017-11-15T12:53:08.659Z,7.08
2017-11-15T12:54:08.916Z,7.18
2017-11-15T12:55:08.796Z,7.15
2017-11-15T12:56:08.531Z,7.18
2017-11-15T12:57:08.776Z,7.22
2017-11-15T12:58:08.766Z,7.23
2017-11-15T12:59:08.496Z,7.23
2017-11-15T13:00:08.757Z,7.36
2017-11-15T13:01:08.489Z,7.44
2017-11-15T13:02:08.464Z,7.44
2017-11-15T13:03:08.715Z,7.39
2017-11-15T13:04:08.808Z,7.22
2017-11-15T13:05:08.432Z,7.07
2017-11-15T13:06:08.166Z,6.93
2017-11-15T13:07:08.416Z,6.95
2017-11-15T13:08:08.815Z,6.86
2017-11-15T13:09:08.396Z,6.86
2017-11-15T13:10:08.643Z,6.89
2017-11-15T13:11:08.370Z,6.89
2017-11-15T13:12:08.685Z,7.03
2017-11-15T13:13:08.613Z,6.96
2017-11-15T13:14:08.604Z,6.95
2017-11-15T13:15:08.590Z,6.75
2017-11-15T13:16:08.429Z,6.8
2017-11-15T13:17:08.572Z,6.87
2017-11-15T13:18:08.563Z,7.03
2017-11-15T13:19:08.547Z,7.18
2017-11-15T13:20:08.540Z,7.19
2017-11-15T13:21:08.272Z,7.32
2017-11-15T13:22:08.267Z,7.39